Time;durP1;ratioP1;P1;durP2;ratioP2;P2;SDS_P1;SDS_P2;PMS_P1;PMS_P2;Temp;Humidity;BMP_temperature;BMP_pressure;BME280_temperature;BME280_humidity;BME280_pressure;Samples;Min_cycle;Max_cycle;Signal;HPM_P1;HPM_P2
2021/07/30 00:03:04;;;;;;;8.80;1.98;;;;;;;16.64;55.16;100725.03;10082357;28;20084;-71
2021/07/30 00:08:00;;;;;;;9.93;1.92;;;;;;;16.58;55.68;100724.50;10073307;28;20062;-71
2021/07/30 00:12:57;;;;;;;7.93;1.77;;;;;;;16.64;55.61;100725.03;10069063;28;20051;-71
2021/07/30 00:17:53;;;;;;;6.75;2.00;;;;;;;16.50;55.93;100728.28;10071105;28;20047;-71
2021/07/30 00:22:50;;;;;;;9.70;2.78;;;;;;;16.39;56.32;100727.19;10072997;28;20098;-72
2021/07/30 00:27:46;;;;;;;8.52;1.77;;;;;;;16.39;56.63;100732.72;10066302;28;20182;-74
2021/07/30 00:32:43;;;;;;;7.43;2.25;;;;;;;16.27;57.14;100725.34;10063162;28;20063;-71
2021/07/30 00:37:40;;;;;;;8.65;2.40;;;;;;;16.30;56.73;100721.06;10067899;28;20113;-71
2021/07/30 00:42:47;;;;;;;5.68;1.70;;;;;;;16.30;56.56;100721.06;10066949;28;20126;-70
2021/07/30 00:47:44;;;;;;;7.45;2.28;;;;;;;16.35;56.78;100723.56;10066007;28;20125;-70
2021/07/30 00:52:41;;;;;;;6.35;2.03;;;;;;;16.34;56.54;100721.97;10070962;28;20711;-68
2021/07/30 00:57:38;;;;;;;9.30;2.40;;;;;;;16.37;56.19;100721.25;10082309;28;20052;-71
2021/07/30 01:02:34;;;;;;;10.90;2.05;;;;;;;16.31;56.48;100717.13;10075832;28;20046;-75
2021/07/30 01:07:32;;;;;;;7.65;2.08;;;;;;;16.19;56.83;100716.06;10066492;28;20046;-73
2021/07/30 01:12:29;;;;;;;9.85;2.58;;;;;;;16.22;56.58;100719.28;10073656;28;20282;-70
2021/07/30 01:17:26;;;;;;;8.20;2.40;;;;;;;16.16;56.87;100705.75;10071454;28;20101;-73
2021/07/30 01:22:27;;;;;;;12.63;2.63;;;;;;;16.22;57.10;100713.75;10071444;28;20166;-70
2021/07/30 01:27:24;;;;;;;11.82;2.85;;;;;;;16.19;56.98;100705.03;10068044;28;20126;-71
2021/07/30 01:32:21;;;;;;;11.82;2.20;;;;;;;16.18;57.09;100708.97;10071169;28;20675;-69
2021/07/30 01:37:17;;;;;;;9.30;2.83;;;;;;;16.17;57.23;100704.59;10071311;28;20142;-71
2021/07/30 01:42:14;;;;;;;7.45;2.08;;;;;;;16.15;57.10;100711.63;10067271;28;20051;-71
2021/07/30 01:47:10;;;;;;;7.10;2.30;;;;;;;16.13;56.92;100705.66;10064846;28;20039;-71
2021/07/30 01:52:07;;;;;;;10.88;2.65;;;;;;;16.11;57.03;100696.97;10064301;28;20101;-70
2021/07/30 01:57:04;;;;;;;17.25;2.20;;;;;;;15.99;57.12;100697.84;10067897;28;20573;-71
2021/07/30 02:02:00;;;;;;;7.50;2.22;;;;;;;16.03;57.18;100695.16;10063525;28;20074;-69
2021/07/30 02:06:57;;;;;;;9.77;1.98;;;;;;;15.98;57.29;100704.50;10064346;28;20551;-71
2021/07/30 02:11:56;;;;;;;10.80;2.63;;;;;;;16.03;57.02;100700.69;10066009;28;20509;-71
2021/07/30 02:16:55;;;;;;;5.63;1.63;;;;;;;15.98;57.02;100693.47;10060844;28;20047;-71
2021/07/30 02:21:54;;;;;;;17.15;2.47;;;;;;;15.85;57.37;100690.00;10065854;28;20106;-71
2021/07/30 02:26:53;;;;;;;9.57;2.47;;;;;;;15.77;57.43;100691.75;10066344;28;20113;-73
2021/07/30 02:31:50;;;;;;;9.32;2.03;;;;;;;15.76;57.61;100695.69;10062410;28;20074;-74
2021/07/30 02:36:46;;;;;;;6.18;1.98;;;;;;;15.86;57.11;100690.81;10057845;28;20051;-72
2021/07/30 02:41:43;;;;;;;10.00;2.38;;;;;;;15.70;57.23;100688.81;10059375;28;20083;-70
2021/07/30 02:46:39;;;;;;;8.57;2.17;;;;;;;15.68;57.48;100685.56;10067870;28;20098;-67
2021/07/30 02:51:36;;;;;;;7.28;2.38;;;;;;;15.63;57.37;100693.31;10061221;28;20047;-70
2021/07/30 02:56:32;;;;;;;8.73;2.10;;;;;;;15.63;57.50;100683.09;10056286;28;20074;-69
2021/07/30 03:01:29;;;;;;;7.55;2.40;;;;;;;15.66;57.68;100682.38;10070212;28;20075;-70
2021/07/30 03:06:25;;;;;;;11.68;3.35;;;;;;;15.58;57.92;100686.09;10063413;28;20051;-73
2021/07/30 03:11:22;;;;;;;11.45;2.65;;;;;;;15.59;58.32;100693.19;10058525;28;21860;-68
2021/07/30 03:16:19;;;;;;;9.00;2.65;;;;;;;15.57;58.15;100687.25;10063202;28;20058;-70
2021/07/30 03:21:15;;;;;;;8.48;2.20;;;;;;;15.53;58.36;100689.13;10066670;28;20058;-68
2021/07/30 03:26:12;;;;;;;7.72;2.40;;;;;;;15.49;57.79;100688.22;10056338;28;20062;-69
2021/07/30 03:31:08;;;;;;;9.20;3.55;;;;;;;15.42;58.32;100683.31;10064676;28;20079;-73
2021/07/30 03:36:05;;;;;;;15.15;3.22;;;;;;;15.41;58.46;100691.91;10055848;28;20130;-70
2021/07/30 03:41:02;;;;;;;7.60;2.65;;;;;;;15.32;58.98;100690.13;10068492;28;20047;-71
2021/07/30 03:45:59;;;;;;;11.07;3.15;;;;;;;15.28;59.43;100691.97;10065310;28;20126;-69
2021/07/30 03:50:55;;;;;;;14.73;4.45;;;;;;;15.19;59.66;100691.31;10063217;28;20130;-68
2021/07/30 03:55:52;;;;;;;10.40;2.88;;;;;;;15.20;59.71;100687.44;10054473;28;20139;-71
2021/07/30 04:00:48;;;;;;;11.35;3.17;;;;;;;15.17;59.90;100682.59;10057862;28;20070;-71
2021/07/30 04:05:45;;;;;;;9.18;2.95;;;;;;;15.19;60.30;100683.06;10058384;28;20126;-70
2021/07/30 04:10:41;;;;;;;14.30;3.80;;;;;;;15.23;60.27;100675.69;10059633;28;20184;-70
2021/07/30 04:15:38;;;;;;;10.98;2.72;;;;;;;15.28;60.54;100689.22;10055354;28;20046;-72
2021/07/30 04:20:38;;;;;;;8.10;3.13;;;;;;;15.29;60.29;100688.09;10063779;28;20138;-72
2021/07/30 04:25:39;;;;;;;10.90;3.67;;;;;;;15.22;60.72;100701.63;10044246;28;20090;-70
2021/07/30 04:30:36;;;;;;;11.35;3.63;;;;;;;15.24;60.76;100677.28;10088904;28;20086;-70
2021/07/30 04:35:36;;;;;;;9.57;3.75;;;;;;;15.10;61.19;100698.91;10075855;28;20050;-69
2021/07/30 04:40:34;;;;;;;14.73;5.07;;;;;;;15.13;61.26;100698.22;10060353;28;20054;-68
2021/07/30 04:45:33;;;;;;;21.33;4.28;;;;;;;15.12;61.27;100691.09;10067582;28;20050;-69
2021/07/30 04:50:30;;;;;;;14.02;4.00;;;;;;;15.04;61.75;100690.09;10083201;28;20498;-67
2021/07/30 04:55:27;;;;;;;12.25;4.50;;;;;;;15.13;61.84;100698.22;10091103;28;20050;-66
2021/07/30 05:00:23;;;;;;;15.15;3.53;;;;;;;15.13;61.73;100690.78;10083495;28;20137;-68
2021/07/30 05:05:20;;;;;;;11.07;4.15;;;;;;;15.21;61.40;100693.72;10089392;28;20075;-67
2021/07/30 05:10:17;;;;;;;11.52;3.75;;;;;;;15.25;61.24;100692.69;10089833;28;20108;-67
2021/07/30 05:15:14;;;;;;;11.48;4.40;;;;;;;15.29;61.41;100688.09;10093574;28;20054;-68
2021/07/30 05:20:11;;;;;;;14.48;4.72;;;;;;;15.31;61.98;100688.50;10092775;28;20551;-68
2021/07/30 05:25:11;;;;;;;14.00;5.15;;;;;;;15.30;61.68;100692.44;10101659;28;20042;-66
2021/07/30 05:30:08;;;;;;;14.32;4.63;;;;;;;15.18;62.16;100697.16;10103297;28;20051;-66
2021/07/30 05:35:05;;;;;;;14.75;5.15;;;;;;;15.18;62.01;100689.72;10098487;28;20506;-65
2021/07/30 05:40:02;;;;;;;10.70;4.13;;;;;;;15.24;62.38;100696.56;10094912;28;20085;-67
2021/07/30 05:44:59;;;;;;;11.52;4.60;;;;;;;15.24;62.38;100696.56;10087260;28;20587;-66
2021/07/30 05:49:55;;;;;;;13.18;5.00;;;;;;;15.28;62.81;100697.47;10092512;28;20138;-65
2021/07/30 05:54:52;;;;;;;15.10;5.03;;;;;;;15.32;62.88;100705.84;10092133;28;20070;-68
2021/07/30 05:59:48;;;;;;;11.88;5.55;;;;;;;15.39;63.03;100710.75;10091526;28;20051;-67
2021/07/30 06:04:45;;;;;;;13.85;5.82;;;;;;;15.44;62.95;100707.75;10097737;28;20047;-65
2021/07/30 06:09:41;;;;;;;14.27;5.10;;;;;;;15.51;63.30;100702.44;10109474;28;20075;-65
2021/07/30 06:14:37;;;;;;;18.05;4.80;;;;;;;15.57;63.39;100706.53;10092549;28;20097;-65
2021/07/30 06:19:34;;;;;;;14.38;5.30;;;;;;;15.56;63.75;100710.44;10106809;28;20047;-64
2021/07/30 06:24:31;;;;;;;13.60;5.18;;;;;;;15.67;63.71;100711.56;10108006;28;20150;-67
2021/07/30 06:29:27;;;;;;;16.20;5.35;;;;;;;15.70;63.79;100699.00;10092965;28;20102;-67
2021/07/30 06:34:24;;;;;;;13.88;5.63;;;;;;;15.80;63.76;100697.72;10089398;28;20065;-69
2021/07/30 06:39:20;;;;;;;15.10;5.50;;;;;;;15.91;64.01;100691.31;10082719;28;20133;-68
2021/07/30 06:44:17;;;;;;;13.15;5.65;;;;;;;15.96;64.11;100690.25;10090855;28;20073;-68
2021/07/30 06:49:14;;;;;;;15.27;6.10;;;;;;;16.11;64.15;100708.78;10089409;28;20524;-68
2021/07/30 06:54:10;;;;;;;17.25;5.85;;;;;;;16.19;64.15;100698.72;10090209;28;20050;-69
2021/07/30 06:59:08;;;;;;;15.38;6.55;;;;;;;16.27;64.12;100696.94;10098459;28;20106;-69
2021/07/30 07:04:04;;;;;;;17.27;5.63;;;;;;;16.42;63.78;100685.09;10110811;28;20054;-68
2021/07/30 07:09:01;;;;;;;16.98;6.18;;;;;;;16.55;63.76;100697.63;10104543;28;20143;-69
2021/07/30 07:13:58;;;;;;;17.23;6.47;;;;;;;16.62;63.31;100706.06;10109901;28;20098;-69
2021/07/30 07:18:55;;;;;;;14.68;6.35;;;;;;;16.68;62.97;100701.06;10106795;28;20074;-69
2021/07/30 07:23:51;;;;;;;19.00;5.15;;;;;;;16.81;62.71;100690.75;10112825;28;20046;-69
2021/07/30 07:28:48;;;;;;;16.05;5.88;;;;;;;16.98;62.83;100701.38;10106301;28;20764;-69
2021/07/30 07:33:44;;;;;;;15.23;5.18;;;;;;;17.15;62.03;100702.09;10102564;28;20142;-69
2021/07/30 07:38:42;;;;;;;16.40;5.97;;;;;;;17.27;61.58;100690.94;10097064;28;20416;-68
2021/07/30 07:43:39;;;;;;;19.55;5.32;;;;;;;17.35;61.04;100681.59;10105225;28;20835;-69
2021/07/30 07:48:35;;;;;;;15.20;5.85;;;;;;;17.46;60.72;100688.13;10105493;28;20095;-69
2021/07/30 07:53:32;;;;;;;16.13;5.50;;;;;;;17.58;59.95;100683.63;10097332;28;20105;-69
2021/07/30 07:58:30;;;;;;;14.70;5.28;;;;;;;17.64;59.57;100693.22;10107356;28;20074;-68
2021/07/30 08:03:26;;;;;;;12.18;4.93;;;;;;;17.74;59.56;100675.22;10084588;28;20066;-69
2021/07/30 08:08:23;;;;;;;14.18;5.00;;;;;;;17.93;58.83;100683.50;10090614;28;20050;-68
2021/07/30 08:13:19;;;;;;;9.05;4.20;;;;;;;18.04;57.89;100683.69;10083036;28;20100;-69
2021/07/30 08:18:16;;;;;;;11.88;4.80;;;;;;;18.09;57.76;100686.13;10092896;28;20122;-68
2021/07/30 08:23:12;;;;;;;10.05;4.20;;;;;;;18.20;57.66;100680.78;10096780;28;20150;-70
2021/07/30 08:28:09;;;;;;;17.73;5.38;;;;;;;18.37;57.45;100691.31;10094369;28;20137;-69
2021/07/30 08:33:05;;;;;;;18.17;4.90;;;;;;;18.43;56.54;100684.31;10109464;28;20042;-68
2021/07/30 08:38:02;;;;;;;9.20;4.10;;;;;;;18.65;56.45;100685.41;10112504;28;20409;-67
2021/07/30 08:43:00;;;;;;;13.25;4.05;;;;;;;18.85;55.24;100688.09;10108803;28;20102;-68
2021/07/30 08:48:00;;;;;;;12.25;3.50;;;;;;;18.85;53.66;100683.38;10111996;28;20075;-68
2021/07/30 08:52:56;;;;;;;12.75;4.03;;;;;;;19.02;54.34;100693.06;10107181;28;20063;-68
2021/07/30 08:57:53;;;;;;;12.10;3.53;;;;;;;19.17;53.95;100690.47;10092809;28;20479;-70
2021/07/30 09:02:49;;;;;;;10.57;3.60;;;;;;;19.38;52.42;100687.97;10096465;28;20042;-68
2021/07/30 09:07:46;;;;;;;9.88;3.30;;;;;;;19.58;52.15;100704.44;10099909;28;20051;-69
2021/07/30 09:12:43;;;;;;;10.88;2.72;;;;;;;19.66;49.32;100692.25;10094578;28;20039;-68
2021/07/30 09:17:42;;;;;;;11.05;3.53;;;;;;;19.78;49.30;100683.66;10092473;28;20157;-68
2021/07/30 09:22:49;;;;;;;10.88;3.20;;;;;;;19.86;48.26;100682.53;10103126;28;20094;-68
2021/07/30 09:27:45;;;;;;;5.13;1.88;;;;;;;19.96;46.93;100679.09;10090481;28;20047;-68
2021/07/30 09:32:42;;;;;;;9.05;3.13;;;;;;;20.09;46.68;100684.34;10110867;28;20598;-68
2021/07/30 09:37:38;;;;;;;11.13;2.70;;;;;;;20.29;47.10;100679.34;10112926;28;20563;-68
2021/07/30 09:42:36;;;;;;;14.32;3.60;;;;;;;20.29;46.86;100685.69;10113273;28;20039;-68
2021/07/30 09:47:46;;;;;;;8.50;3.20;;;;;;;20.63;46.32;100676.44;10112691;28;20054;-68
2021/07/30 09:52:43;;;;;;;7.22;2.47;;;;;;;20.66;44.63;100682.03;10110122;28;20074;-68
2021/07/30 09:57:42;;;;;;;7.20;2.97;;;;;;;20.68;43.98;100685.22;10112647;28;20642;-68
2021/07/30 10:02:41;;;;;;;7.30;3.03;;;;;;;20.67;44.55;100672.47;10090164;28;20071;-67
2021/07/30 10:07:41;;;;;;;8.45;2.13;;;;;;;21.09;42.76;100668.31;10103012;28;20565;-68
2021/07/30 10:12:42;;;;;;;14.20;2.92;;;;;;;21.59;41.99;100678.84;10097775;28;20122;-67
2021/07/30 10:17:43;;;;;;;10.70;2.90;;;;;;;22.72;40.07;100659.75;10094574;28;20072;-69
2021/07/30 10:22:49;;;;;;;9.57;3.17;;;;;;;23.28;38.25;100643.22;10093314;28;20806;-68
2021/07/30 10:27:46;;;;;;;8.00;2.25;;;;;;;23.96;36.47;100653.94;10104034;28;20094;-68
2021/07/30 10:32:55;;;;;;;6.10;2.10;;;;;;;23.63;36.36;100645.00;10107275;28;20051;-67
2021/07/30 10:38:10;;;;;;;8.15;2.30;;;;;;;23.79;35.18;100654.88;10109268;28;20070;-68
2021/07/30 10:43:14;;;;;;;4.90;1.98;;;;;;;24.55;34.65;100634.28;10108230;28;20042;-67
2021/07/30 10:48:13;;;;;;;5.32;1.70;;;;;;;25.72;32.29;100640.75;10093727;28;20094;-69
2021/07/30 10:53:34;;;;;;;12.30;2.08;;;;;;;26.38;31.64;100630.84;10097756;28;20139;-67
2021/07/30 10:58:40;;;;;;;6.28;1.83;;;;;;;25.23;31.59;100629.06;10092149;28;20058;-67
2021/07/30 11:03:48;;;;;;;5.00;1.60;;;;;;;25.18;32.51;100636.72;10095062;28;20062;-69
2021/07/30 11:13:58;;;;;;;10.10;2.40;;;;;;;25.68;31.75;100615.59;10094020;28;20113;-69
2021/07/30 11:18:55;;;;;;;5.90;1.77;;;;;;;25.35;32.13;100629.28;10105995;28;20464;-69
2021/07/30 11:23:51;;;;;;;6.55;1.98;;;;;;;24.96;31.92;100624.97;10101850;28;20090;-68
2021/07/30 11:28:51;;;;;;;8.98;2.55;;;;;;;25.11;32.26;100608.00;10098543;28;20074;-70
2021/07/30 11:33:48;;;;;;;8.23;2.08;;;;;;;25.37;32.10;100615.66;10113335;28;20046;-69
2021/07/30 11:38:50;;;;;;;12.73;4.00;;;;;;;25.05;32.46;100604.13;10101492;28;20047;-68
2021/07/30 11:44:04;;;;;;;4.95;2.10;;;;;;;25.27;32.69;100611.00;10095733;28;20129;-67
2021/07/30 11:49:03;;;;;;;6.88;2.13;;;;;;;24.85;32.13;100618.72;10088307;28;20133;-68
2021/07/30 11:53:59;;;;;;;7.68;2.38;;;;;;;25.38;32.46;100613.66;10098027;28;20046;-67
2021/07/30 11:59:00;;;;;;;7.25;2.20;;;;;;;24.63;32.03;100606.25;10084034;28;20105;-70
2021/07/30 12:04:14;;;;;;;5.80;2.30;;;;;;;25.07;32.15;100618.47;10094806;28;20058;-68
2021/07/30 12:09:13;;;;;;;5.53;1.85;;;;;;;25.54;31.88;100613.03;10108149;28;20493;-70
2021/07/30 12:14:10;;;;;;;7.05;2.13;;;;;;;25.16;31.47;100604.75;10111916;28;20079;-67
2021/07/30 12:19:07;;;;;;;6.03;2.28;;;;;;;24.83;32.06;100604.38;10117925;28;20047;-67
2021/07/30 12:24:07;;;;;;;5.20;1.88;;;;;;;24.92;32.46;100596.25;10119379;28;20043;-68
2021/07/30 12:29:04;;;;;;;7.15;2.53;;;;;;;24.84;32.06;100580.81;10110610;28;20433;-68
2021/07/30 12:34:14;;;;;;;5.80;2.35;;;;;;;25.08;31.77;100586.47;10107420;28;20097;-67
2021/07/30 12:39:11;;;;;;;4.28;1.70;;;;;;;24.71;31.90;100590.94;10109727;28;20113;-69
2021/07/30 12:44:18;;;;;;;8.18;2.53;;;;;;;24.71;32.20;100576.97;10084894;28;20059;-66
2021/07/30 12:49:26;;;;;;;7.53;1.95;;;;;;;24.53;32.84;100580.78;10104059;28;20054;-70
2021/07/30 12:54:34;;;;;;;7.32;2.45;;;;;;;24.89;30.81;100574.75;10092351;28;20085;-67
2021/07/30 12:59:50;;;;;;;6.28;1.70;;;;;;;25.38;31.59;100557.69;10087084;28;20042;-69
2021/07/30 13:04:48;;;;;;;5.07;2.22;;;;;;;25.42;30.91;100566.84;10097050;28;20481;-70
2021/07/30 13:09:51;;;;;;;7.43;2.40;;;;;;;25.30;29.51;100559.81;10087083;28;20114;-67
2021/07/30 13:14:47;;;;;;;5.93;2.20;;;;;;;24.88;29.51;100562.00;10089603;28;20051;-68
2021/07/30 13:19:44;;;;;;;7.85;2.30;;;;;;;24.73;30.04;100554.97;10100022;28;20129;-67
2021/07/30 13:24:40;;;;;;;8.43;2.17;;;;;;;24.50;30.12;100561.25;10117189;28;20082;-67
2021/07/30 13:29:36;;;;;;;8.50;2.20;;;;;;;24.60;31.42;100545.56;10107800;28;20066;-67
2021/07/30 13:34:34;;;;;;;6.63;1.60;;;;;;;24.47;29.28;100543.31;10103196;28;20106;-68
2021/07/30 13:39:30;;;;;;;6.25;2.00;;;;;;;24.67;29.73;100531.50;10096066;28;20105;-68
2021/07/30 13:44:27;;;;;;;5.03;1.90;;;;;;;25.02;30.21;100535.00;10092846;28;20154;-68
2021/07/30 13:49:23;;;;;;;7.82;2.42;;;;;;;24.85;30.42;100529.25;10093636;28;20066;-69
2021/07/30 13:54:20;;;;;;;8.68;2.15;;;;;;;24.91;30.07;100526.78;10092703;28;20394;-68
2021/07/30 13:59:16;;;;;;;4.57;2.33;;;;;;;24.96;30.19;100523.53;10082238;28;20828;-69
2021/07/30 14:04:13;;;;;;;5.80;2.20;;;;;;;25.06;29.00;100521.78;10097437;28;20567;-69
2021/07/30 14:09:09;;;;;;;5.60;1.92;;;;;;;25.34;29.73;100507.41;10104684;28;20072;-68
2021/07/30 14:14:06;;;;;;;6.28;2.05;;;;;;;25.42;29.59;100507.28;10113142;28;20051;-68
2021/07/30 14:19:03;;;;;;;5.47;1.80;;;;;;;25.45;29.78;100503.63;10101150;28;20046;-68
2021/07/30 14:23:59;;;;;;;4.25;1.92;;;;;;;25.06;29.88;100516.19;10104123;28;20162;-68
2021/07/30 14:28:56;;;;;;;4.40;1.83;;;;;;;25.10;29.97;100509.31;10114145;28;20091;-68
2021/07/30 14:33:52;;;;;;;8.00;2.25;;;;;;;24.92;31.06;100501.19;10112957;28;20051;-67
2021/07/30 14:38:49;;;;;;;11.38;2.03;;;;;;;24.88;29.99;100499.66;10112201;28;20398;-67
2021/07/30 14:43:48;;;;;;;6.97;2.20;;;;;;;24.81;30.49;100528.53;10093226;28;20042;-68
2021/07/30 14:48:44;;;;;;;7.32;2.10;;;;;;;24.61;30.68;100519.22;10106255;28;20074;-67
2021/07/30 14:53:41;;;;;;;6.05;1.85;;;;;;;24.51;31.45;100504.97;10114214;28;20146;-70
2021/07/30 14:58:37;;;;;;;5.35;1.95;;;;;;;24.84;31.75;100510.91;10104973;28;20055;-67
2021/07/30 15:03:33;;;;;;;5.60;2.40;;;;;;;25.15;31.24;100505.25;10111428;28;20043;-68
2021/07/30 15:08:31;;;;;;;5.95;2.25;;;;;;;25.13;31.75;100504.88;10099176;28;20059;-68
2021/07/30 15:13:27;;;;;;;7.13;2.50;;;;;;;24.99;32.02;100515.09;10084405;28;20039;-67
2021/07/30 15:18:24;;;;;;;8.38;2.45;;;;;;;24.52;32.83;100498.16;10078844;28;20090;-68
2021/07/30 15:23:23;;;;;;;6.88;2.42;;;;;;;24.34;33.36;100494.75;10083451;28;20105;-67
2021/07/30 15:28:19;;;;;;;14.00;3.30;;;;;;;24.10;33.63;100491.84;10088279;28;20047;-70
2021/07/30 15:33:16;;;;;;;5.45;2.15;;;;;;;24.02;34.00;100495.13;10080488;28;20130;-67
2021/07/30 15:38:16;;;;;;;9.43;2.10;;;;;;;24.00;34.23;100503.94;10084227;28;20070;-68
2021/07/30 15:43:13;;;;;;;7.13;2.28;;;;;;;24.30;34.66;100499.63;10087324;28;20117;-67
2021/07/30 15:48:11;;;;;;;6.45;2.83;;;;;;;24.26;34.86;100487.69;10095446;28;20150;-67
2021/07/30 15:53:07;;;;;;;8.60;2.40;;;;;;;24.17;34.95;100490.97;10091830;28;20047;-67
2021/07/30 15:58:04;;;;;;;6.35;2.63;;;;;;;24.56;35.21;100484.91;10091621;28;20070;-69
2021/07/30 16:03:00;;;;;;;5.95;2.72;;;;;;;24.66;35.85;100477.59;10092007;28;20125;-68
2021/07/30 16:08:02;;;;;;;7.15;2.75;;;;;;;24.78;35.51;100481.81;10090654;28;20043;-68
2021/07/30 16:12:58;;;;;;;8.63;3.33;;;;;;;24.79;35.29;100472.25;10098138;28;20137;-69
2021/07/30 16:17:55;;;;;;;8.32;2.83;;;;;;;25.50;34.40;100467.53;10082585;28;20034;-65
2021/07/30 16:22:51;;;;;;;6.10;2.30;;;;;;;26.02;33.81;100463.41;10080355;28;20051;-68
2021/07/30 16:27:49;;;;;;;9.38;2.65;;;;;;;25.74;33.85;100470.31;10093047;28;20078;-67
2021/07/30 16:32:46;;;;;;;5.68;2.45;;;;;;;25.26;34.57;100463.16;10082884;28;20062;-67
2021/07/30 16:37:43;;;;;;;5.38;2.42;;;;;;;24.90;35.37;100450.50;10080955;28;20489;-68
2021/07/30 16:42:39;;;;;;;6.85;2.13;;;;;;;25.16;34.98;100448.09;10093155;28;20167;-67
2021/07/30 16:47:37;;;;;;;7.60;2.47;;;;;;;25.22;35.14;100446.41;10093286;28;20039;-68
2021/07/30 16:52:33;;;;;;;5.75;2.55;;;;;;;25.51;34.74;100440.34;10085752;28;20051;-68
2021/07/30 16:57:31;;;;;;;6.82;2.30;;;;;;;25.49;34.51;100440.75;10090648;28;20047;-68
2021/07/30 17:02:27;;;;;;;7.53;2.55;;;;;;;24.89;35.62;100429.34;10089133;28;20564;-67
2021/07/30 17:07:24;;;;;;;8.30;2.88;;;;;;;25.01;35.68;100424.38;10090599;28;20723;-65
2021/07/30 17:12:20;;;;;;;7.60;2.50;;;;;;;25.03;35.96;100433.13;10096231;28;20398;-67
2021/07/30 17:17:17;;;;;;;7.35;2.33;;;;;;;24.93;36.51;100418.91;10090759;28;20046;-68
2021/07/30 17:22:14;;;;;;;6.28;2.30;;;;;;;24.71;36.57;100412.03;10092820;28;20085;-68
2021/07/30 17:27:11;;;;;;;5.85;1.92;;;;;;;24.34;37.08;100405.34;10085624;28;20094;-69
2021/07/30 17:32:07;;;;;;;9.15;2.30;;;;;;;24.35;37.57;100396.56;10092924;28;20476;-68
2021/07/30 17:37:04;;;;;;;5.47;2.63;;;;;;;24.32;37.83;100403.00;10085652;28;20086;-65
2021/07/30 17:42:00;;;;;;;7.97;2.30;;;;;;;24.12;38.45;100402.84;10093885;28;20101;-66
2021/07/30 17:46:57;;;;;;;5.53;2.47;;;;;;;24.02;38.73;100395.41;10092703;28;20055;-65
2021/07/30 17:51:53;;;;;;;6.15;2.25;;;;;;;23.92;39.32;100396.31;10100245;28;20147;-68
2021/07/30 17:56:50;;;;;;;6.97;1.80;;;;;;;23.91;39.27;100394.75;10098239;28;20039;-65
2021/07/30 18:01:47;;;;;;;5.63;1.75;;;;;;;23.89;39.55;100391.56;10095389;28;20105;-65
2021/07/30 18:06:44;;;;;;;8.18;2.13;;;;;;;23.77;39.41;100389.31;10087638;28;20039;-66
2021/07/30 18:11:41;;;;;;;6.38;2.40;;;;;;;23.66;39.99;100384.63;10079013;28;20047;-66
2021/07/30 18:16:37;;;;;;;6.35;2.33;;;;;;;23.66;40.13;100384.63;10094799;28;20043;-65
2021/07/30 18:21:38;;;;;;;6.75;2.85;;;;;;;23.52;40.33;100374.41;10109576;28;20043;-66
2021/07/30 18:26:34;;;;;;;6.57;2.50;;;;;;;23.37;40.63;100377.75;10105082;28;20493;-66
2021/07/30 18:31:32;;;;;;;6.40;2.17;;;;;;;23.26;41.44;100367.50;10104271;28;20091;-68
2021/07/30 18:36:30;;;;;;;9.23;2.55;;;;;;;23.19;41.75;100373.16;10106813;28;20042;-67
2021/07/30 18:41:29;;;;;;;9.57;2.75;;;;;;;23.11;42.71;100366.03;10101838;28;20085;-65
2021/07/30 18:46:25;;;;;;;6.80;3.17;;;;;;;23.03;43.51;100353.38;10104117;28;20834;-67
2021/07/30 18:51:22;;;;;;;8.07;2.65;;;;;;;22.93;43.32;100341.09;10101153;28;20523;-66
2021/07/30 18:56:19;;;;;;;6.93;2.50;;;;;;;22.81;43.72;100347.97;10105827;28;20089;-66
2021/07/30 19:01:16;;;;;;;6.57;2.30;;;;;;;22.70;44.09;100341.69;10097176;28;20043;-66
2021/07/30 19:06:12;;;;;;;6.07;2.45;;;;;;;22.61;44.69;100341.34;10091830;28;20410;-66
2021/07/30 19:11:11;;;;;;;8.55;3.17;;;;;;;22.53;45.39;100337.81;10080968;28;20564;-66
2021/07/30 19:16:07;;;;;;;6.18;2.42;;;;;;;22.45;45.92;100325.94;10087241;28;20039;-66
2021/07/30 19:21:04;;;;;;;6.95;2.30;;;;;;;22.39;46.07;100333.13;10083432;28;20051;-65
2021/07/30 19:26:00;;;;;;;5.55;2.58;;;;;;;22.33;46.82;100329.19;10103447;28;20153;-66
2021/07/30 19:30:57;;;;;;;7.30;2.42;;;;;;;22.30;47.05;100330.00;10095792;28;20047;-67
2021/07/30 19:35:53;;;;;;;10.63;2.70;;;;;;;22.25;47.05;100334.00;10105521;28;20752;-66
2021/07/30 19:40:50;;;;;;;13.90;4.18;;;;;;;22.20;47.18;100319.69;10107906;28;20106;-65
2021/07/30 19:45:46;;;;;;;6.32;2.72;;;;;;;22.16;47.76;100321.69;10102793;28;20596;-66
2021/07/30 19:50:43;;;;;;;6.20;2.88;;;;;;;22.08;48.19;100312.59;10103955;28;20469;-66
2021/07/30 19:55:43;;;;;;;7.50;3.03;;;;;;;22.02;48.26;100309.47;10107959;28;20113;-65
2021/07/30 20:00:39;;;;;;;9.48;3.17;;;;;;;21.97;48.75;100295.16;10104866;28;20070;-65
2021/07/30 20:05:36;;;;;;;9.13;3.47;;;;;;;21.87;48.92;100291.25;10100688;28;20043;-67
2021/07/30 20:10:32;;;;;;;7.93;3.30;;;;;;;21.77;49.10;100286.50;10104690;28;20078;-69
2021/07/30 20:15:29;;;;;;;8.20;2.92;;;;;;;21.67;49.04;100277.03;10112208;28;20085;-68
2021/07/30 20:20:25;;;;;;;8.30;2.97;;;;;;;21.57;49.05;100278.66;10114482;28;20043;-68
2021/07/30 20:25:22;;;;;;;6.57;2.55;;;;;;;21.50;49.38;100273.13;10107460;28;20055;-70
2021/07/30 20:30:18;;;;;;;8.68;2.78;;;;;;;21.45;49.65;100276.34;10104641;28;20098;-68
2021/07/30 20:35:15;;;;;;;10.02;2.75;;;;;;;21.43;49.84;100267.59;10103821;28;20147;-68
2021/07/30 20:40:12;;;;;;;13.38;2.50;;;;;;;21.40;50.24;100265.63;10103130;28;20468;-74
2021/07/30 20:45:08;;;;;;;6.90;2.50;;;;;;;21.36;50.52;100262.81;10102145;28;20050;-75
2021/07/30 20:50:07;;;;;;;8.73;2.55;;;;;;;21.36;50.39;100262.81;10118548;28;20520;-69
2021/07/30 20:55:05;;;;;;;9.77;2.80;;;;;;;21.40;50.84;100260.06;10111618;28;20098;-73
2021/07/30 21:00:01;;;;;;;10.95;3.45;;;;;;;21.38;51.20;100262.44;10103055;28;20047;-73
2021/07/30 21:04:58;;;;;;;10.13;3.03;;;;;;;21.40;51.77;100279.53;10097904;28;20085;-73
2021/07/30 21:09:54;;;;;;;9.05;3.40;;;;;;;21.39;50.16;100283.47;10089565;28;20106;-69
2021/07/30 21:14:52;;;;;;;9.20;3.33;;;;;;;21.44;49.70;100288.63;10090471;28;20078;-72
2021/07/30 21:19:48;;;;;;;11.10;3.90;;;;;;;21.40;51.87;100315.69;10097013;28;20560;-70
2021/07/30 21:24:44;;;;;;;11.00;4.05;;;;;;;21.10;56.99;100316.91;10089943;28;20154;-71
2021/07/30 21:29:41;;;;;;;8.95;3.90;;;;;;;20.73;58.94;100298.69;10086781;28;20040;-70
2021/07/30 21:34:38;;;;;;;9.05;3.67;;;;;;;20.49;60.41;100299.41;10086868;28;20051;-69
2021/07/30 21:39:37;;;;;;;10.77;3.78;;;;;;;20.34;61.95;100291.09;10089750;28;20112;-69
2021/07/30 21:44:34;;;;;;;7.90;4.57;;;;;;;20.24;65.35;100278.00;10087848;28;20051;-70
2021/07/30 21:49:30;;;;;;;8.57;4.25;;;;;;;20.16;66.40;100281.94;10116536;28;20042;-69
2021/07/30 21:54:27;;;;;;;7.15;3.95;;;;;;;20.09;66.76;100270.81;10106986;28;20042;-70
2021/07/30 21:59:23;;;;;;;11.18;4.72;;;;;;;19.75;68.25;100334.94;10112637;28;20031;-71
2021/07/30 22:04:20;;;;;;;9.00;4.45;;;;;;;19.82;66.95;100314.72;10110781;28;20047;-69
2021/07/30 22:09:17;;;;;;;10.95;4.45;;;;;;;19.89;66.53;100311.97;10107712;28;20039;-69
2021/07/30 22:14:13;;;;;;;9.30;4.32;;;;;;;20.01;67.20;100319.19;10108804;28;20051;-70
2021/07/30 22:19:11;;;;;;;10.77;4.78;;;;;;;19.93;68.36;100313.59;10111562;28;20521;-70
2021/07/30 22:24:09;;;;;;;7.97;3.97;;;;;;;19.91;66.34;100324.31;10086818;28;20089;-70
2021/07/30 22:29:06;;;;;;;7.70;4.00;;;;;;;19.93;66.54;100346.88;10092088;28;20397;-71
2021/07/30 22:34:02;;;;;;;9.27;3.75;;;;;;;19.85;64.84;100370.25;10109866;28;20113;-73
2021/07/30 22:38:59;;;;;;;6.80;3.22;;;;;;;19.47;66.53;100341.91;10103743;28;20087;-70
2021/07/30 22:43:55;;;;;;;7.78;3.83;;;;;;;19.16;68.95;100326.66;10111299;28;21393;-70
2021/07/30 22:48:52;;;;;;;10.80;4.72;;;;;;;19.08;70.83;100320.28;10107341;28;20074;-71